createdAt,value
2023-05-05T00:01:06.134Z,99840.31
2023-05-05T00:03:34.105Z,99841.84
2023-05-05T00:06:00.749Z,99850.41
2023-05-05T00:08:28.385Z,99847.31
2023-05-05T00:10:55.917Z,99850.69
2023-05-05T00:13:22.364Z,99842.81
2023-05-05T00:15:50.951Z,99839.03
2023-05-05T00:18:18.898Z,99846.88
2023-05-05T00:20:49.124Z,99842.25
2023-05-05T00:23:16.334Z,99843.50
2023-05-05T00:25:42.849Z,99852.75
2023-05-05T00:28:09.374Z,99841.81
2023-05-05T00:30:37.222Z,99842.94
2023-05-05T00:33:03.924Z,99844.00
2023-05-05T00:35:30.413Z,99851.31
2023-05-05T00:37:56.915Z,99848.91
2023-05-05T00:40:23.524Z,99839.38
2023-05-05T00:42:53.291Z,99837.72
2023-05-05T00:45:21.300Z,99847.25
2023-05-05T00:47:49.916Z,99845.56
2023-05-05T00:50:25.969Z,99848.91
2023-05-05T00:52:55.298Z,99840.66
2023-05-05T00:55:22.045Z,99842.34
2023-05-05T00:57:49.284Z,99837.84
2023-05-05T01:00:16.537Z,99844.72
2023-05-05T01:02:43.088Z,99836.72
2023-05-05T01:05:10.090Z,99833.94
2023-05-05T01:07:58.721Z,99822.44
2023-05-05T01:10:31.335Z,99829.16
2023-05-05T01:13:06.967Z,99825.66
2023-05-05T01:15:35.221Z,99831.00
2023-05-05T01:18:10.984Z,99827.91
2023-05-05T01:21:11.522Z,99820.16
2023-05-05T01:23:59.264Z,99810.75
2023-05-05T01:27:02.962Z,99813.97
2023-05-05T01:29:51.625Z,99789.69
2023-05-05T01:32:27.297Z,99797.69
2023-05-05T01:34:58.732Z,99787.03
2023-05-05T01:37:29.118Z,99786.88
2023-05-05T01:39:58.882Z,99780.31
2023-05-05T01:42:26.018Z,99772.75
2023-05-05T01:44:54.145Z,99772.47
2023-05-05T01:47:22.340Z,99776.53
2023-05-05T01:49:49.242Z,99796.75
2023-05-05T01:52:17.543Z,99802.34
2023-05-05T01:54:45.193Z,99809.31
2023-05-05T01:57:12.875Z,99811.69
2023-05-05T01:59:39.733Z,99810.50
2023-05-05T02:02:08.561Z,99820.59
2023-05-05T02:04:37.207Z,99824.38
2023-05-05T02:07:04.917Z,99836.28
2023-05-05T02:09:32.438Z,99848.75
2023-05-05T02:11:59.796Z,99846.63
2023-05-05T02:14:27.357Z,99846.75
2023-05-05T02:16:55.446Z,99848.13
2023-05-05T02:19:27.502Z,99840.28
2023-05-05T02:21:53.939Z,99844.91
2023-05-05T02:24:20.507Z,99847.69
2023-05-05T02:26:47.383Z,99845.16
2023-05-05T02:29:19.146Z,99853.97
2023-05-05T02:31:49.191Z,99852.41
2023-05-05T02:34:25.511Z,99849.06
2023-05-05T02:36:54.339Z,99845.53
2023-05-05T02:39:26.096Z,99845.53
2023-05-05T02:41:55.299Z,99855.22
2023-05-05T02:44:26.095Z,99856.09
2023-05-05T02:46:54.591Z,99859.44
2023-05-05T02:49:23.033Z,99860.53
2023-05-05T02:51:50.188Z,99864.16
2023-05-05T02:54:26.415Z,99851.88
2023-05-05T02:56:54.028Z,99854.38
2023-05-05T02:59:36.488Z,99838.41
2023-05-05T03:02:39.149Z,99853.28
2023-05-05T03:05:09.993Z,99859.19
2023-05-05T03:07:54.769Z,99859.88
2023-05-05T03:10:29.538Z,99861.72
2023-05-05T03:13:00.971Z,99850.91
2023-05-05T03:15:45.159Z,99850.22
2023-05-05T03:18:13.081Z,99858.22
2023-05-05T03:20:43.270Z,99849.50
2023-05-05T03:23:13.308Z,99849.75
2023-05-05T03:25:44.639Z,99855.22
2023-05-05T03:28:16.422Z,99858.16
2023-05-05T03:30:42.918Z,99858.28
2023-05-05T03:33:12.775Z,99862.91
2023-05-05T03:35:41.293Z,99863.88
2023-05-05T03:38:11.531Z,99860.63
2023-05-05T03:40:44.116Z,99861.84
2023-05-05T03:43:14.419Z,99854.97
2023-05-05T03:45:40.968Z,99861.41
2023-05-05T03:48:09.536Z,99869.53
2023-05-05T03:50:37.549Z,99860.50
2023-05-05T03:53:04.219Z,99860.03
2023-05-05T03:55:30.704Z,99861.16
2023-05-05T03:57:57.269Z,99864.78
2023-05-05T04:00:23.916Z,99868.41
2023-05-05T04:02:51.166Z,99867.56
2023-05-05T04:05:19.774Z,99860.31
2023-05-05T04:07:46.843Z,99869.00
2023-05-05T04:10:14.230Z,99867.75
2023-05-05T04:12:41.051Z,99872.84
2023-05-05T04:15:08.065Z,99877.19
2023-05-05T04:17:35.161Z,99878.16
2023-05-05T04:20:02.421Z,99871.88
2023-05-05T04:22:31.130Z,99877.75
2023-05-05T04:24:58.204Z,99871.47
2023-05-05T04:27:26.160Z,99867.00
2023-05-05T04:29:53.144Z,99880.31
2023-05-05T04:32:19.645Z,99880.41
2023-05-05T04:34:46.691Z,99876.78
2023-05-05T04:37:14.388Z,99879.06
2023-05-05T04:39:41.484Z,99882.47
2023-05-05T04:42:08.881Z,99887.66
2023-05-05T04:44:36.172Z,99885.69
2023-05-05T04:47:04.092Z,99886.41
2023-05-05T04:49:31.557Z,99894.25
2023-05-05T04:51:58.097Z,99902.84
2023-05-05T04:54:24.557Z,99904.38
2023-05-05T04:56:52.127Z,99893.28
2023-05-05T04:59:18.595Z,99901.13
2023-05-05T05:01:46.571Z,99900.31
2023-05-05T05:04:13.721Z,99898.47
2023-05-05T05:06:40.134Z,99907.88
2023-05-05T05:09:06.565Z,99910.03
2023-05-05T05:11:33.031Z,99910.63
2023-05-05T05:14:00.124Z,99907.72
2023-05-05T05:16:26.712Z,99909.25
2023-05-05T05:18:53.422Z,99913.34
2023-05-05T05:21:20.417Z,99918.53
2023-05-05T05:23:47.296Z,99911.38
2023-05-05T05:26:13.842Z,99923.28
2023-05-05T05:28:41.502Z,99918.91
2023-05-05T05:31:08.022Z,99924.13
2023-05-05T05:33:34.813Z,99926.66
2023-05-05T05:36:01.348Z,99921.78
2023-05-05T05:38:27.807Z,99930.38
2023-05-05T05:40:57.745Z,99928.16
2023-05-05T05:43:24.748Z,99925.94
2023-05-05T05:45:51.926Z,99931.69
2023-05-05T05:48:18.983Z,99936.25
2023-05-05T05:50:45.812Z,99939.09
2023-05-05T05:53:12.205Z,99935.38
2023-05-05T05:55:39.310Z,99938.38
2023-05-05T05:58:05.988Z,99944.03
2023-05-05T06:00:32.489Z,99948.16
2023-05-05T06:03:04.976Z,99945.66
2023-05-05T06:05:35.301Z,99943.28
2023-05-05T06:08:01.774Z,99951.31
2023-05-05T06:10:30.027Z,99951.44
2023-05-05T06:13:04.783Z,99944.81
2023-05-05T06:15:32.936Z,99958.03
2023-05-05T06:18:01.717Z,99953.34
2023-05-05T06:20:28.314Z,99949.69
2023-05-05T06:22:55.586Z,99956.53
2023-05-05T06:25:23.228Z,99956.66
2023-05-05T06:27:51.271Z,99961.13
2023-05-05T06:30:17.735Z,99954.38
2023-05-05T06:32:44.239Z,99955.03
2023-05-05T06:35:10.989Z,99967.06
2023-05-05T06:37:37.474Z,99951.81
2023-05-05T06:40:04.576Z,99960.66
2023-05-05T06:42:32.121Z,99963.34
2023-05-05T06:44:59.405Z,99958.00
2023-05-05T06:47:25.998Z,99965.19
2023-05-05T06:49:52.535Z,99961.81
2023-05-05T06:52:19.001Z,99957.44
2023-05-05T06:54:45.435Z,99952.41
2023-05-05T06:57:11.829Z,99956.22
2023-05-05T06:59:38.236Z,99953.69
2023-05-05T07:02:04.702Z,99958.34
2023-05-05T07:04:31.521Z,99960.34
2023-05-05T07:06:58.324Z,99958.66
2023-05-05T07:09:24.752Z,99957.78
2023-05-05T07:11:51.163Z,99957.78
2023-05-05T07:14:17.550Z,99959.19
2023-05-05T07:16:44.017Z,99962.41
2023-05-05T07:19:10.545Z,99961.25
2023-05-05T07:21:36.963Z,99963.81
2023-05-05T07:24:03.882Z,99975.03
2023-05-05T07:26:30.376Z,99975.13
2023-05-05T07:28:58.491Z,99966.50
2023-05-05T07:31:26.152Z,99964.47
2023-05-05T07:33:52.589Z,99976.78
2023-05-05T07:36:19.055Z,99967.63
2023-05-05T07:38:45.523Z,99969.28
2023-05-05T07:41:12.877Z,99971.38
2023-05-05T07:43:44.081Z,99966.09
2023-05-05T07:46:11.114Z,99973.41
2023-05-05T07:48:38.964Z,99975.44
2023-05-05T07:51:05.571Z,99970.19
2023-05-05T07:53:32.236Z,99966.19
2023-05-05T07:55:58.706Z,99972.78
2023-05-05T07:58:25.231Z,99977.66
2023-05-05T08:00:51.637Z,99980.53
2023-05-05T08:03:21.556Z,99976.41
2023-05-05T08:05:49.405Z,99973.66
2023-05-05T08:08:17.630Z,99974.03
2023-05-05T08:10:44.136Z,99970.84
2023-05-05T08:13:10.638Z,99964.50
2023-05-05T08:15:37.129Z,99963.00
2023-05-05T08:18:03.701Z,99964.94
2023-05-05T08:20:30.230Z,99962.09
2023-05-05T08:22:56.688Z,99969.97
2023-05-05T08:25:23.256Z,99964.97
2023-05-05T08:27:49.675Z,99969.00
2023-05-05T08:30:19.519Z,99969.69
2023-05-05T08:32:46.729Z,99974.47
2023-05-05T08:35:13.533Z,99971.44
2023-05-05T08:37:40.352Z,99970.97
2023-05-05T08:40:07.340Z,99973.34
2023-05-05T08:42:38.439Z,99968.31
2023-05-05T08:45:07.343Z,99965.47
2023-05-05T08:47:35.491Z,99962.31
2023-05-05T08:50:02.338Z,99959.81
2023-05-05T08:52:33.651Z,99956.31
2023-05-05T08:55:26.763Z,99951.53
2023-05-05T08:57:56.861Z,99950.19
2023-05-05T09:00:24.241Z,99952.91
2023-05-05T09:02:50.830Z,99950.75
2023-05-05T09:05:17.687Z,99953.59
2023-05-05T09:07:44.326Z,99954.94
2023-05-05T09:10:11.713Z,99957.81
2023-05-05T09:12:42.094Z,99956.50
2023-05-05T09:15:10.194Z,99950.63
2023-05-05T09:17:37.312Z,99956.34
2023-05-05T09:20:12.077Z,99956.16
2023-05-05T09:22:41.389Z,99953.69
2023-05-05T09:25:13.542Z,99948.63
2023-05-05T09:27:48.453Z,99949.47
2023-05-05T09:30:23.512Z,99948.28
2023-05-05T09:32:54.641Z,99943.75
2023-05-05T09:35:22.429Z,99951.31
2023-05-05T09:37:48.865Z,99939.06
2023-05-05T09:40:17.450Z,99942.72
2023-05-05T09:42:47.187Z,99942.06
2023-05-05T09:45:19.691Z,99937.19
2023-05-05T09:47:46.985Z,99929.28
2023-05-05T09:50:15.905Z,99925.41
2023-05-05T09:52:42.844Z,99921.34
2023-05-05T09:55:18.677Z,99927.06
2023-05-05T09:57:47.185Z,99918.97
2023-05-05T10:00:14.471Z,99921.50
2023-05-05T10:02:40.929Z,99917.47
2023-05-05T10:05:11.464Z,99917.47
2023-05-05T10:07:39.293Z,99917.25
2023-05-05T10:10:10.589Z,99913.69
2023-05-05T10:12:37.999Z,99910.59
2023-05-05T10:15:05.917Z,99911.94
2023-05-05T10:17:35.981Z,99906.69
2023-05-05T10:20:06.543Z,99909.69
2023-05-05T10:22:34.469Z,99904.44
2023-05-05T10:25:10.325Z,99907.56
2023-05-05T10:27:44.225Z,99910.38
2023-05-05T10:30:23.019Z,99909.09
2023-05-05T10:33:18.304Z,99898.56
2023-05-05T10:35:50.046Z,99905.97
2023-05-05T10:38:17.502Z,99902.47
2023-05-05T10:40:48.607Z,99899.34
2023-05-05T10:43:15.147Z,99894.41
2023-05-05T10:45:42.341Z,99901.44
2023-05-05T10:48:13.790Z,99898.28
2023-05-05T10:50:47.061Z,99892.31
2023-05-05T10:53:27.575Z,99884.31
2023-05-05T10:55:58.896Z,99888.50
2023-05-05T10:58:47.117Z,99879.09
2023-05-05T11:01:33.081Z,99879.47
2023-05-05T11:04:22.381Z,99885.06
2023-05-05T11:07:07.732Z,99880.69
2023-05-05T11:09:41.901Z,99885.25
2023-05-05T11:12:08.967Z,99886.28
2023-05-05T11:14:35.633Z,99882.66
2023-05-05T11:17:02.182Z,99882.38
2023-05-05T11:19:44.196Z,99873.47
2023-05-05T11:22:10.990Z,99867.44
2023-05-05T11:24:39.533Z,99872.19
2023-05-05T11:27:06.550Z,99852.09
2023-05-05T11:30:04.739Z,99858.50
2023-05-05T11:32:31.232Z,99854.44
2023-05-05T11:34:57.743Z,99860.50
2023-05-05T11:37:24.411Z,99854.56
2023-05-05T11:40:10.410Z,99847.84
2023-05-05T11:42:37.035Z,99843.16
2023-05-05T11:45:19.788Z,99842.53
2023-05-05T11:47:46.799Z,99845.41
2023-05-05T11:50:17.531Z,99842.44
2023-05-05T11:52:44.040Z,99846.88
2023-05-05T11:55:10.638Z,99845.56
2023-05-05T11:57:37.142Z,99835.81
2023-05-05T12:00:05.891Z,99834.97
2023-05-05T12:02:32.773Z,99833.53
2023-05-05T12:05:00.076Z,99833.44
2023-05-05T12:07:28.500Z,99831.78
2023-05-05T12:09:55.114Z,99818.66
2023-05-05T12:12:34.224Z,99820.88
2023-05-05T12:15:00.950Z,99826.16
2023-05-05T12:17:36.332Z,99816.00
2023-05-05T12:20:03.024Z,99822.22
2023-05-05T12:22:29.504Z,99816.47
2023-05-05T12:24:57.711Z,99823.38
2023-05-05T12:27:24.526Z,99821.31
2023-05-05T12:29:51.420Z,99816.38
2023-05-05T12:32:22.552Z,99824.13
2023-05-05T12:34:50.334Z,99817.66
2023-05-05T12:37:18.942Z,99819.03
2023-05-05T12:39:45.443Z,99816.53
2023-05-05T12:42:12.103Z,99816.19
2023-05-05T12:44:39.304Z,99807.75
2023-05-05T12:47:07.069Z,99815.47
2023-05-05T12:49:52.033Z,99812.28
2023-05-05T12:52:18.678Z,99814.34
2023-05-05T12:55:11.582Z,99812.38
2023-05-05T12:57:38.589Z,99806.53
2023-05-05T13:00:16.647Z,99805.22
2023-05-05T13:02:43.229Z,99800.31
2023-05-05T13:05:10.170Z,99803.28
2023-05-05T13:07:49.514Z,99792.22
2023-05-05T13:10:16.240Z,99790.06
2023-05-05T13:12:42.713Z,99783.56
2023-05-05T13:15:09.996Z,99784.41
2023-05-05T13:17:36.654Z,99780.50
2023-05-05T13:20:03.384Z,99775.09
2023-05-05T13:22:29.804Z,99769.69
2023-05-05T13:24:56.222Z,99761.63
2023-05-05T13:27:22.682Z,99755.94
2023-05-05T13:29:49.139Z,99750.44
2023-05-05T13:32:15.697Z,99747.97
2023-05-05T13:34:43.501Z,99747.75
2023-05-05T13:37:10.121Z,99750.06
2023-05-05T13:39:36.852Z,99744.72
2023-05-05T13:42:03.279Z,99750.72
2023-05-05T13:44:29.744Z,99730.91
2023-05-05T13:46:56.181Z,99739.06
2023-05-05T13:49:22.680Z,99730.28
2023-05-05T13:51:49.171Z,99740.22
2023-05-05T13:54:15.651Z,99735.31
2023-05-05T13:56:42.112Z,99740.13
2023-05-05T13:59:09.152Z,99726.44
2023-05-05T14:01:35.721Z,99730.81
2023-05-05T14:04:04.546Z,99728.84
2023-05-05T14:06:32.584Z,99733.72
2023-05-05T14:08:59.054Z,99731.66
2023-05-05T14:11:25.485Z,99722.47
2023-05-05T14:13:52.621Z,99726.03
2023-05-05T14:16:19.094Z,99721.31
2023-05-05T14:18:45.710Z,99718.06
2023-05-05T14:21:12.194Z,99720.22
2023-05-05T14:23:38.634Z,99713.59
2023-05-05T14:26:05.199Z,99711.75
2023-05-05T14:28:31.787Z,99711.94
2023-05-05T14:30:58.257Z,99706.72
2023-05-05T14:33:24.730Z,99714.88
2023-05-05T14:35:51.223Z,99711.56
2023-05-05T14:38:17.706Z,99715.13
2023-05-05T14:40:44.222Z,99717.38
2023-05-05T14:43:10.765Z,99717.06
2023-05-05T14:45:37.441Z,99713.88
2023-05-05T14:48:04.080Z,99715.72
2023-05-05T14:50:30.572Z,99715.47
2023-05-05T14:52:57.085Z,99719.16
2023-05-05T14:55:24.914Z,99720.19
2023-05-05T14:57:51.777Z,99720.91
2023-05-05T15:00:18.448Z,99730.38
2023-05-05T15:02:44.916Z,99722.13
2023-05-05T15:05:11.785Z,99725.69
2023-05-05T15:07:38.336Z,99731.78
2023-05-05T15:10:05.212Z,99724.50
2023-05-05T15:12:32.061Z,99717.75
2023-05-05T15:14:58.487Z,99720.09
2023-05-05T15:17:25.321Z,99712.94
2023-05-05T15:19:51.736Z,99722.22
2023-05-05T15:22:18.170Z,99716.91
2023-05-05T15:24:44.593Z,99721.00
2023-05-05T15:27:10.985Z,99720.06
2023-05-05T15:29:37.387Z,99726.84
2023-05-05T15:32:03.977Z,99728.78
2023-05-05T15:34:30.541Z,99727.28
2023-05-05T15:36:57.272Z,99729.69
2023-05-05T15:39:23.687Z,99732.44
2023-05-05T15:41:50.134Z,99735.19
2023-05-05T15:44:16.578Z,99732.78
2023-05-05T15:46:43.200Z,99735.03
2023-05-05T15:49:09.736Z,99747.09
2023-05-05T15:51:36.270Z,99752.06
2023-05-05T15:54:02.744Z,99750.78
2023-05-05T15:56:29.546Z,99768.63
2023-05-05T15:58:56.684Z,99772.38
2023-05-05T16:01:23.133Z,99775.94
2023-05-05T16:03:49.618Z,99787.06
2023-05-05T16:06:16.104Z,99797.56
2023-05-05T16:08:42.550Z,99800.75
2023-05-05T16:11:09.146Z,99801.25
2023-05-05T16:13:35.838Z,99805.81
2023-05-05T16:16:02.251Z,99811.56
2023-05-05T16:18:28.683Z,99812.06
2023-05-05T16:20:55.511Z,99819.78
2023-05-05T16:23:21.957Z,99828.06
2023-05-05T16:25:48.369Z,99826.53
2023-05-05T16:28:14.752Z,99828.34
2023-05-05T16:30:42.843Z,99826.38
2023-05-05T16:33:09.472Z,99826.69
2023-05-05T16:35:36.226Z,99832.72
2023-05-05T16:38:02.711Z,99837.44
2023-05-05T16:40:29.349Z,99837.09
2023-05-05T16:42:55.811Z,99830.88
2023-05-05T16:45:22.462Z,99838.88
2023-05-05T16:47:48.989Z,99829.31
2023-05-05T16:50:17.223Z,99827.47
2023-05-05T16:52:43.699Z,99824.75
2023-05-05T16:55:10.415Z,99823.00
2023-05-05T16:57:37.082Z,99813.97
2023-05-05T17:00:05.423Z,99814.09
2023-05-05T17:02:31.913Z,99817.75
2023-05-05T17:04:58.477Z,99808.66
2023-05-05T17:07:25.002Z,99810.16
2023-05-05T17:09:51.858Z,99807.25
2023-05-05T17:12:18.428Z,99816.78
2023-05-05T17:14:48.070Z,99816.94
2023-05-05T17:17:14.683Z,99815.56
2023-05-05T17:19:42.587Z,99821.41
2023-05-05T17:22:09.104Z,99823.38
2023-05-05T17:24:35.575Z,99822.13
2023-05-05T17:27:02.034Z,99822.47
2023-05-05T17:29:28.446Z,99827.47
2023-05-05T17:31:54.975Z,99826.09
2023-05-05T17:34:21.886Z,99829.91
2023-05-05T17:36:48.315Z,99833.56
2023-05-05T17:39:14.718Z,99829.03
2023-05-05T17:41:42.248Z,99835.94
2023-05-05T17:44:08.654Z,99842.16
2023-05-05T17:46:35.155Z,99842.16
2023-05-05T17:49:01.719Z,99838.22
2023-05-05T17:51:28.180Z,99834.88
2023-05-05T17:53:54.659Z,99837.31
2023-05-05T17:56:22.025Z,99835.13
2023-05-05T17:58:48.811Z,99837.97
2023-05-05T18:01:25.819Z,99842.41
2023-05-05T18:03:52.459Z,99843.56
2023-05-05T18:06:18.935Z,99836.69
2023-05-05T18:08:45.376Z,99839.66
2023-05-05T18:11:11.902Z,99846.38
2023-05-05T18:13:38.758Z,99847.22
2023-05-05T18:16:05.428Z,99846.91
2023-05-05T18:18:31.925Z,99854.94
2023-05-05T18:20:58.442Z,99846.59
2023-05-05T18:23:24.860Z,99845.59
2023-05-05T18:25:51.246Z,99854.94
2023-05-05T18:28:17.754Z,99845.53
2023-05-05T18:30:44.224Z,99844.00
2023-05-05T18:33:10.961Z,99848.97
2023-05-05T18:35:37.436Z,99849.81
2023-05-05T18:38:04.861Z,99855.69
2023-05-05T18:40:31.639Z,99854.66
2023-05-05T18:42:58.088Z,99856.63
2023-05-05T18:45:24.701Z,99854.94
2023-05-05T18:47:51.145Z,99862.16
2023-05-05T18:50:17.677Z,99864.28
2023-05-05T18:52:44.109Z,99866.56
2023-05-05T18:55:10.815Z,99863.50
2023-05-05T18:57:37.942Z,99878.31
2023-05-05T19:00:05.178Z,99881.75
2023-05-05T19:02:31.656Z,99881.50
2023-05-05T19:04:58.138Z,99884.63
2023-05-05T19:07:34.301Z,99889.47
2023-05-05T19:10:04.092Z,99891.59
2023-05-05T19:12:30.529Z,99888.75
2023-05-05T19:14:57.037Z,99890.44
2023-05-05T19:17:23.487Z,99889.91
2023-05-05T19:19:49.992Z,99889.34
2023-05-05T19:22:17.476Z,99889.06
2023-05-05T19:24:43.956Z,99893.31
2023-05-05T19:27:15.522Z,99891.78
2023-05-05T19:29:42.795Z,99888.56
2023-05-05T19:32:09.331Z,99898.56
2023-05-05T19:34:35.886Z,99898.16
2023-05-05T19:37:02.381Z,99893.09
2023-05-05T19:39:28.933Z,99894.22
2023-05-05T19:41:55.425Z,99892.69
2023-05-05T19:44:22.661Z,99893.97
2023-05-05T19:46:49.168Z,99898.66
2023-05-05T19:49:15.633Z,99887.56
2023-05-05T19:51:42.637Z,99892.75
2023-05-05T19:54:09.133Z,99895.56
2023-05-05T19:56:36.312Z,99893.03
2023-05-05T19:59:05.024Z,99890.50
2023-05-05T20:01:33.036Z,99891.63
2023-05-05T20:03:59.972Z,99893.91
2023-05-05T20:06:26.917Z,99904.34
2023-05-05T20:08:55.289Z,99897.59
2023-05-05T20:11:21.893Z,99901.25
2023-05-05T20:13:49.664Z,99899.56
2023-05-05T20:16:16.406Z,99908.00
2023-05-05T20:18:43.268Z,99905.88
2023-05-05T20:21:09.790Z,99911.69
2023-05-05T20:23:36.852Z,99911.41
2023-05-05T20:26:03.789Z,99910.44
2023-05-05T20:28:31.718Z,99910.28
2023-05-05T20:30:58.601Z,99909.16
2023-05-05T20:33:25.292Z,99912.63
2023-05-05T20:35:51.948Z,99912.09
2023-05-05T20:38:18.565Z,99923.88
2023-05-05T20:40:45.066Z,99917.97
2023-05-05T20:43:12.206Z,99915.31
2023-05-05T20:45:38.872Z,99921.34
2023-05-05T20:48:07.408Z,99924.72
2023-05-05T20:50:33.967Z,99921.22
2023-05-05T20:53:00.513Z,99926.28
2023-05-05T20:55:27.023Z,99929.91
2023-05-05T20:57:53.561Z,99935.25
2023-05-05T21:00:20.158Z,99935.41
2023-05-05T21:02:46.858Z,99932.72
2023-05-05T21:05:14.075Z,99933.56
2023-05-05T21:07:40.773Z,99931.75
2023-05-05T21:10:08.110Z,99928.38
2023-05-05T21:12:34.907Z,99931.91
2023-05-05T21:15:01.450Z,99928.81
2023-05-05T21:17:28.997Z,99937.94
2023-05-05T21:19:56.037Z,99935.53
2023-05-05T21:22:22.675Z,99931.69
2023-05-05T21:24:49.166Z,99938.72
2023-05-05T21:27:15.761Z,99933.81
2023-05-05T21:29:42.360Z,99936.63
2023-05-05T21:32:10.268Z,99929.88
2023-05-05T21:34:37.524Z,99928.84
2023-05-05T21:37:04.540Z,99926.00
2023-05-05T21:39:32.398Z,99929.50
2023-05-05T21:42:00.938Z,99925.56
2023-05-05T21:44:28.231Z,99928.75
2023-05-05T21:46:55.223Z,99924.09
2023-05-05T21:49:22.004Z,99921.81
2023-05-05T21:51:48.684Z,99921.53
2023-05-05T21:54:15.188Z,99927.00
2023-05-05T21:56:41.832Z,99923.72
2023-05-05T21:59:08.377Z,99923.00
2023-05-05T22:01:35.089Z,99928.19
2023-05-05T22:04:02.158Z,99921.03
2023-05-05T22:06:28.701Z,99931.59
2023-05-05T22:08:56.842Z,99920.47
2023-05-05T22:11:23.653Z,99927.59
2023-05-05T22:13:50.288Z,99926.63
2023-05-05T22:16:19.731Z,99932.69
2023-05-05T22:18:46.823Z,99930.50
2023-05-05T22:21:13.365Z,99935.28
2023-05-05T22:23:42.102Z,99937.53
2023-05-05T22:26:09.252Z,99932.09
2023-05-05T22:28:36.049Z,99940.09
2023-05-05T22:31:02.848Z,99939.38
2023-05-05T22:33:29.494Z,99936.97
2023-05-05T22:35:56.314Z,99936.41
2023-05-05T22:38:22.853Z,99933.97
2023-05-05T22:40:49.390Z,99927.47
2023-05-05T22:43:15.916Z,99934.31
2023-05-05T22:45:43.228Z,99944.25
2023-05-05T22:48:10.030Z,99936.38
2023-05-05T22:50:36.790Z,99934.59
2023-05-05T22:53:03.598Z,99942.69
2023-05-05T22:55:30.229Z,99934.00
2023-05-05T22:57:56.782Z,99940.03
2023-05-05T23:00:36.556Z,99943.69
2023-05-05T23:03:03.223Z,99944.97
2023-05-05T23:05:30.200Z,99949.03
2023-05-05T23:07:59.780Z,99934.38
2023-05-05T23:10:26.248Z,99942.84
2023-05-05T23:12:53.830Z,99934.44
2023-05-05T23:15:21.818Z,99939.75
2023-05-05T23:17:48.341Z,99939.91
2023-05-05T23:20:15.211Z,99946.47
2023-05-05T23:22:41.990Z,99946.00
2023-05-05T23:25:09.079Z,99946.13
2023-05-05T23:27:35.916Z,99944.91
2023-05-05T23:30:02.472Z,99942.97
2023-05-05T23:32:28.973Z,99945.50
2023-05-05T23:34:55.603Z,99942.69
2023-05-05T23:37:22.916Z,99938.94
2023-05-05T23:39:49.387Z,99939.91
2023-05-05T23:42:15.856Z,99933.97
2023-05-05T23:44:44.482Z,99930.16
2023-05-05T23:47:11.053Z,99931.50
2023-05-05T23:49:38.047Z,99933.84
2023-05-05T23:52:04.766Z,99928.22
2023-05-05T23:54:31.414Z,99937.69
2023-05-05T23:57:00.180Z,99927.84
2023-05-05T23:59:26.742Z,99930.75
